Time;durP1;ratioP1;P1;durP2;ratioP2;P2;SDS_P1;SDS_P2;PMS_P1;PMS_P2;Temp;Humidity;BMP_temperature;BMP_pressure;BME280_temperature;BME280_humidity;BME280_pressure;Samples;Min_cycle;Max_cycle;Signal;HPM_P1;HPM_P2
2023/07/04 00:02:55;;;;;;;11.52;2.80;;;;;;;-147.65;100.00;57646.63;10358295;28;20046;-76
2023/07/04 00:07:55;;;;;;;12.48;4.38;;;;;;;-147.65;100.00;57646.63;10356885;28;20382;-76
2023/07/04 00:12:56;;;;;;;10.98;4.25;;;;;;;-147.65;100.00;57646.63;10358977;28;20050;-77
2023/07/04 00:17:56;;;;;;;13.38;3.50;;;;;;;-147.65;100.00;57646.63;10363342;28;20375;-76
2023/07/04 00:22:59;;;;;;;7.70;3.33;;;;;;;-147.65;100.00;57646.63;10365969;28;20052;-76
2023/07/04 00:28:05;;;;;;;15.75;4.88;;;;;;;-147.65;100.00;57646.63;10362993;28;20057;-75
2023/07/04 00:33:05;;;;;;;10.15;4.30;;;;;;;-147.65;100.00;57646.63;10364439;28;20118;-76
2023/07/04 00:38:06;;;;;;;12.23;4.63;;;;;;;-147.65;100.00;57646.63;10361688;28;20111;-76
2023/07/04 00:43:12;;;;;;;13.85;5.85;;;;;;;-147.65;100.00;57646.63;10363181;28;20088;-76
2023/07/04 00:48:14;;;;;;;10.23;3.75;;;;;;;-147.65;100.00;57646.63;10363521;28;20041;-76
2023/07/04 00:53:15;;;;;;;8.75;4.18;;;;;;;-147.65;100.00;57646.63;10363610;28;20038;-76
2023/07/04 00:58:16;;;;;;;17.52;4.97;;;;;;;-147.65;100.00;57646.63;10345569;28;20046;-77
2023/07/04 01:03:20;;;;;;;9.38;4.05;;;;;;;-147.65;100.00;57646.63;10361342;28;20041;-76
2023/07/04 01:08:27;;;;;;;14.02;4.47;;;;;;;-147.65;100.00;57646.63;10361728;28;20437;-76
2023/07/04 01:13:35;;;;;;;11.40;4.18;;;;;;;-147.65;100.00;57646.63;10365937;28;20053;-77
2023/07/04 01:18:37;;;;;;;16.05;4.40;;;;;;;-147.65;100.00;57646.63;10356854;28;20053;-77
2023/07/04 01:23:59;;;;;;;12.57;6.18;;;;;;;-147.65;100.00;57646.63;10360705;28;20054;-76
2023/07/04 01:29:00;;;;;;;19.67;5.70;;;;;;;-147.65;100.00;57646.63;10363511;28;20449;-77
2023/07/04 01:34:02;;;;;;;22.17;5.57;;;;;;;-147.65;100.00;57646.63;10375704;28;20049;-77
2023/07/04 01:39:04;;;;;;;13.57;3.95;;;;;;;-147.65;100.00;57646.63;10362312;28;20504;-76
2023/07/04 01:44:05;;;;;;;10.57;5.57;;;;;;;-147.65;100.00;57646.63;10362548;28;20045;-77
2023/07/04 01:49:06;;;;;;;19.63;3.78;;;;;;;-147.65;100.00;57646.63;10344767;28;20121;-76
2023/07/04 01:54:07;;;;;;;15.93;5.43;;;;;;;-147.65;100.00;57646.63;10360304;28;20042;-77
2023/07/04 01:59:09;;;;;;;12.20;4.57;;;;;;;-147.65;100.00;57646.63;10306032;28;20045;-77
2023/07/04 02:04:09;;;;;;;16.52;4.90;;;;;;;-147.65;100.00;57646.63;10359076;28;20038;-77
2023/07/04 02:09:10;;;;;;;15.95;6.20;;;;;;;-147.65;100.00;57646.63;10361164;28;20041;-77
2023/07/04 02:14:11;;;;;;;16.38;4.78;;;;;;;-147.65;100.00;57646.63;10360404;28;20073;-76
2023/07/04 02:19:11;;;;;;;9.57;4.03;;;;;;;-147.65;100.00;57646.63;10365866;28;20043;-77
2023/07/04 02:24:12;;;;;;;10.90;4.50;;;;;;;-147.65;100.00;57646.63;10360118;28;20038;-77
2023/07/04 02:29:12;;;;;;;17.85;4.57;;;;;;;-147.65;100.00;57646.63;10306349;28;20426;-77
2023/07/04 02:34:13;;;;;;;17.52;4.90;;;;;;;-147.65;100.00;57646.63;10354383;28;20056;-77
2023/07/04 02:39:14;;;;;;;15.77;3.83;;;;;;;-147.65;100.00;57646.63;10359426;28;20046;-77
2023/07/04 02:44:14;;;;;;;11.63;4.78;;;;;;;-147.65;100.00;57646.63;10360738;28;20478;-77
2023/07/04 02:49:15;;;;;;;14.77;5.93;;;;;;;-147.65;100.00;57646.63;10359867;28;20042;-77
2023/07/04 02:54:15;;;;;;;15.52;5.03;;;;;;;-147.65;100.00;57646.63;10358367;28;20041;-77
2023/07/04 02:59:16;;;;;;;12.32;5.43;;;;;;;-147.65;100.00;57646.63;10359034;28;20065;-76
2023/07/04 03:04:17;;;;;;;13.88;5.57;;;;;;;-147.65;100.00;57646.63;10360772;28;20065;-76
2023/07/04 03:09:17;;;;;;;15.95;7.22;;;;;;;-147.65;100.00;57646.63;10359531;28;20040;-77
2023/07/04 03:14:18;;;;;;;23.10;5.38;;;;;;;-147.65;100.00;57646.63;10358812;28;20076;-77
2023/07/04 03:19:19;;;;;;;30.20;6.00;;;;;;;-147.65;100.00;57646.63;10357443;28;20060;-76
2023/07/04 03:24:20;;;;;;;18.83;5.20;;;;;;;-147.65;100.00;57646.63;10324990;28;20050;-77
2023/07/04 03:29:21;;;;;;;21.48;5.38;;;;;;;-147.65;100.00;57646.63;10352122;28;20046;-76
2023/07/04 03:34:21;;;;;;;20.90;7.32;;;;;;;-147.65;100.00;57646.63;10352140;28;20073;-77
2023/07/04 03:39:22;;;;;;;15.90;5.68;;;;;;;-147.65;100.00;57646.63;10358903;28;20046;-76
2023/07/04 03:44:22;;;;;;;14.27;4.85;;;;;;;-147.65;100.00;57646.63;10358615;28;20121;-76
2023/07/04 03:49:23;;;;;;;17.92;5.95;;;;;;;-147.65;100.00;57646.63;10364192;28;20405;-76
2023/07/04 03:54:23;;;;;;;23.05;5.30;;;;;;;-147.65;100.00;57646.63;10364624;28;20056;-76
2023/07/04 03:59:24;;;;;;;25.55;7.10;;;;;;;-147.65;100.00;57646.63;10362938;28;20133;-76
2023/07/04 04:04:24;;;;;;;14.98;6.53;;;;;;;-147.65;100.00;57646.63;10364900;28;20041;-75
2023/07/04 04:09:25;;;;;;;20.27;5.57;;;;;;;-147.65;100.00;57646.63;10365266;28;20467;-76
2023/07/04 04:14:26;;;;;;;27.17;6.50;;;;;;;-147.65;100.00;57646.63;10364234;28;20129;-77
2023/07/04 04:19:26;;;;;;;17.48;6.38;;;;;;;-147.65;100.00;57646.63;10361921;28;20498;-77
2023/07/04 04:24:27;;;;;;;12.45;6.57;;;;;;;-147.65;100.00;57646.63;10364335;28;20100;-77
2023/07/04 04:29:28;;;;;;;27.40;6.50;;;;;;;-147.65;100.00;57646.63;10357040;28;20053;-76
2023/07/04 04:34:28;;;;;;;16.45;5.07;;;;;;;-147.65;100.00;57646.63;10364336;28;20038;-77
2023/07/04 04:39:29;;;;;;;12.60;6.85;;;;;;;-147.65;100.00;57646.63;10362522;28;20397;-77
2023/07/04 04:44:29;;;;;;;13.07;5.88;;;;;;;-147.65;100.00;57646.63;10363519;28;20121;-77
2023/07/04 04:49:30;;;;;;;19.33;6.82;;;;;;;-147.65;100.00;57646.63;10363812;28;20042;-77
2023/07/04 04:54:31;;;;;;;10.80;4.78;;;;;;;-147.65;100.00;57646.63;10359986;28;20050;-76
2023/07/04 04:59:31;;;;;;;18.40;6.63;;;;;;;-147.65;100.00;57646.63;10361242;28;20385;-77
2023/07/04 05:04:33;;;;;;;19.30;6.82;;;;;;;-147.65;100.00;57646.63;10362711;28;20111;-77
2023/07/04 05:09:34;;;;;;;17.88;7.35;;;;;;;-147.65;100.00;57646.63;10361160;28;20038;-77
2023/07/04 05:14:35;;;;;;;14.45;5.47;;;;;;;-147.65;100.00;57646.63;10355073;28;20473;-76
2023/07/04 05:19:35;;;;;;;22.90;7.05;;;;;;;-147.65;100.00;57646.63;10362415;28;20060;-76
2023/07/04 05:24:36;;;;;;;17.33;5.90;;;;;;;-147.65;100.00;57646.63;10362305;28;20041;-76
2023/07/04 05:29:36;;;;;;;26.20;9.32;;;;;;;-147.65;100.00;57646.63;10341087;28;20052;-77
2023/07/04 05:34:37;;;;;;;11.27;4.25;;;;;;;-147.65;100.00;57646.63;10353244;28;20464;-81
2023/07/04 05:39:38;;;;;;;16.27;4.95;;;;;;;-147.65;100.00;57646.63;10359035;28;20068;-77
2023/07/04 05:44:38;;;;;;;16.10;5.55;;;;;;;-147.65;100.00;57646.63;10360803;28;20034;-78
2023/07/04 05:49:39;;;;;;;17.90;6.90;;;;;;;-147.65;100.00;57646.63;10363075;28;20127;-77
2023/07/04 05:54:39;;;;;;;18.83;6.47;;;;;;;-147.65;100.00;57646.63;10361481;28;20045;-78
2023/07/04 05:59:40;;;;;;;14.40;5.07;;;;;;;-147.65;100.00;57646.63;10342973;28;20045;-78
2023/07/04 06:04:41;;;;;;;18.55;6.68;;;;;;;-147.65;100.00;57646.63;10337431;28;20125;-78
2023/07/04 06:09:41;;;;;;;17.25;6.00;;;;;;;-147.65;100.00;57646.63;10379710;28;20107;-78
2023/07/04 06:14:42;;;;;;;13.07;4.75;;;;;;;-147.65;100.00;57646.63;10358279;28;20042;-78
2023/07/04 06:19:43;;;;;;;14.27;5.05;;;;;;;-147.65;100.00;57646.63;10352791;28;20046;-76
2023/07/04 06:24:46;;;;;;;13.48;5.72;;;;;;;-147.65;100.00;57646.63;10328669;28;20034;-77
2023/07/04 06:29:47;;;;;;;27.90;7.07;;;;;;;-147.65;100.00;57646.63;10311551;28;20041;-76
2023/07/04 06:34:47;;;;;;;13.57;4.83;;;;;;;-147.65;100.00;57646.63;10352769;28;20173;-76
2023/07/04 06:39:48;;;;;;;12.80;5.13;;;;;;;-147.65;100.00;57646.63;10331667;28;20042;-76
2023/07/04 06:44:49;;;;;;;19.13;6.28;;;;;;;-147.65;100.00;57646.63;10350640;28;20041;-76
2023/07/04 06:49:49;;;;;;;15.20;6.07;;;;;;;-147.65;100.00;57646.63;10349852;28;20041;-76
2023/07/04 06:54:50;;;;;;;15.13;4.40;;;;;;;-147.65;100.00;57646.63;10351866;28;20050;-76
2023/07/04 06:59:51;;;;;;;17.48;4.45;;;;;;;-147.65;100.00;57646.63;10347954;28;20052;-77
2023/07/04 07:04:51;;;;;;;14.27;5.32;;;;;;;-147.65;100.00;57646.63;10344373;28;20030;-76
2023/07/04 07:09:53;;;;;;;15.87;4.07;;;;;;;-147.65;100.00;57646.63;10344698;28;20038;-76
2023/07/04 07:14:53;;;;;;;7.93;3.70;;;;;;;-147.65;100.00;57646.63;10330350;28;20049;-76
2023/07/04 07:19:54;;;;;;;17.03;4.30;;;;;;;-147.65;100.00;57646.63;10336547;28;20284;-77
2023/07/04 07:24:54;;;;;;;15.80;5.17;;;;;;;-147.65;100.00;57646.63;10352061;28;20039;-79
2023/07/04 07:29:55;;;;;;;9.20;4.70;;;;;;;-147.65;100.00;57646.63;10336064;28;20062;-77
2023/07/04 07:34:56;;;;;;;13.13;4.67;;;;;;;-147.65;100.00;57646.63;10345171;28;20041;-78
2023/07/04 07:39:56;;;;;;;8.98;3.47;;;;;;;-147.65;100.00;57646.63;10361886;28;20046;-77
2023/07/04 07:44:57;;;;;;;9.67;4.93;;;;;;;-147.65;100.00;57646.63;10365424;28;20042;-81
2023/07/04 07:49:57;;;;;;;8.70;3.70;;;;;;;-147.65;100.00;57646.63;10343813;28;20495;-79
2023/07/04 07:54:58;;;;;;;15.40;4.37;;;;;;;-147.65;100.00;57646.63;10378527;28;20048;-80
2023/07/04 07:59:59;;;;;;;9.43;3.50;;;;;;;-147.65;100.00;57646.63;10366442;28;20125;-77
2023/07/04 08:05:00;;;;;;;18.67;5.97;;;;;;;-147.65;100.00;57646.63;10354978;28;20064;-76
2023/07/04 08:10:00;;;;;;;19.07;6.00;;;;;;;-147.65;100.00;57646.63;10348361;28;20042;-78
2023/07/04 08:15:01;;;;;;;17.27;5.60;;;;;;;-147.65;100.00;57646.63;10351591;28;20187;-77
2023/07/04 08:20:01;;;;;;;9.73;3.97;;;;;;;-147.65;100.00;57646.63;10364956;28;20401;-77
2023/07/04 08:25:03;;;;;;;9.93;4.73;;;;;;;-147.65;100.00;57646.63;10357083;28;20371;-79
2023/07/04 08:30:04;;;;;;;10.75;3.85;;;;;;;-147.65;100.00;57646.63;10351957;28;20052;-79
2023/07/04 08:35:05;;;;;;;10.27;3.17;;;;;;;-147.65;100.00;57646.63;10327273;28;20038;-77
2023/07/04 08:40:07;;;;;;;7.00;3.60;;;;;;;-147.65;100.00;57646.63;10364064;28;20753;-78
2023/07/04 08:45:11;;;;;;;13.60;4.22;;;;;;;-147.65;100.00;57646.63;10355999;28;20034;-78
2023/07/04 08:50:19;;;;;;;11.15;2.95;;;;;;;-147.65;100.00;57646.63;10354818;28;20069;-78
2023/07/04 08:55:20;;;;;;;13.00;2.72;;;;;;;-147.65;100.00;57646.63;10362728;28;20449;-78
2023/07/04 09:00:36;;;;;;;9.77;3.53;;;;;;;-147.65;100.00;57646.63;10341017;28;20137;-78
2023/07/04 09:06:05;;;;;;;7.13;2.70;;;;;;;-147.65;100.00;57646.63;10322071;28;20039;-78
2023/07/04 09:11:09;;;;;;;7.57;3.25;;;;;;;-147.65;100.00;57646.63;10360710;28;20556;-81
2023/07/04 09:16:18;;;;;;;10.73;2.78;;;;;;;-147.65;100.00;57646.63;10337180;28;20037;-76
2023/07/04 09:21:20;;;;;;;13.65;4.63;;;;;;;-147.65;100.00;57646.63;10300485;28;20453;-79
2023/07/04 09:26:24;;;;;;;7.43;2.50;;;;;;;-147.65;100.00;57646.63;10360086;28;20052;-77
2023/07/04 09:31:29;;;;;;;6.45;2.25;;;;;;;-147.65;100.00;57646.63;10285154;28;20413;-77
2023/07/04 09:36:31;;;;;;;7.43;2.25;;;;;;;-147.65;100.00;57646.63;10303834;28;20069;-76
2023/07/04 09:41:33;;;;;;;10.98;2.75;;;;;;;-147.65;100.00;57646.63;10292574;28;20061;-77
2023/07/04 09:46:34;;;;;;;8.68;2.97;;;;;;;-147.65;100.00;57646.63;10336499;28;20120;-79
2023/07/04 09:51:34;;;;;;;8.97;3.00;;;;;;;-147.65;100.00;57646.63;10355533;28;20056;-76
2023/07/04 09:56:35;;;;;;;7.77;2.80;;;;;;;-147.65;100.00;57646.63;10346412;28;20045;-75
2023/07/04 10:01:41;;;;;;;7.07;2.53;;;;;;;-147.65;100.00;57646.63;10339762;28;20038;-78
2023/07/04 10:06:43;;;;;;;7.68;2.40;;;;;;;-147.65;100.00;57646.63;10359889;28;20418;-78
2023/07/04 10:11:44;;;;;;;10.30;2.35;;;;;;;-147.65;100.00;57646.63;10359146;28;20042;-78
2023/07/04 10:16:47;;;;;;;8.23;3.00;;;;;;;-147.65;100.00;57646.63;10340373;28;20060;-78
2023/07/04 10:21:50;;;;;;;9.80;3.20;;;;;;;-147.65;100.00;57646.63;10360960;28;20037;-77
2023/07/04 10:26:59;;;;;;;5.82;2.83;;;;;;;-147.65;100.00;57646.63;10358173;28;20049;-77
2023/07/04 10:32:01;;;;;;;15.15;4.22;;;;;;;-147.65;100.00;57646.63;10342279;28;20095;-83
2023/07/04 10:37:02;;;;;;;7.93;1.92;;;;;;;-147.65;100.00;57646.63;10357974;28;20057;-77
2023/07/04 10:42:15;;;;;;;5.90;3.47;;;;;;;-147.65;100.00;57646.63;10356396;28;20038;-78
2023/07/04 10:47:24;;;;;;;7.78;2.85;;;;;;;-147.65;100.00;57646.63;10311806;28;20067;-79
2023/07/04 10:52:30;;;;;;;10.77;4.15;;;;;;;-147.65;100.00;57646.63;10318931;28;20397;-79
2023/07/04 10:57:43;;;;;;;10.32;2.83;;;;;;;-147.65;100.00;57646.63;10355467;28;20042;-78
2023/07/04 11:02:52;;;;;;;12.77;3.90;;;;;;;-147.65;100.00;57646.63;10328615;28;20054;-77
2023/07/04 11:07:52;;;;;;;12.35;3.03;;;;;;;-147.65;100.00;57646.63;10358510;28;20124;-78
2023/07/04 11:12:54;;;;;;;9.00;3.30;;;;;;;-147.65;100.00;57646.63;10357202;28;20042;-78
2023/07/04 11:17:54;;;;;;;13.40;3.67;;;;;;;-147.65;100.00;57646.63;10309065;28;20100;-78
2023/07/04 11:23:00;;;;;;;8.53;2.50;;;;;;;-147.65;100.00;57646.63;10341666;28;20042;-80
2023/07/04 11:28:25;;;;;;;7.28;2.88;;;;;;;-147.65;100.00;57646.63;10357016;28;20132;-78
2023/07/04 11:33:43;;;;;;;8.45;4.43;;;;;;;-147.65;100.00;57646.63;10355741;28;20125;-77
2023/07/04 11:38:48;;;;;;;8.00;3.72;;;;;;;-147.65;100.00;57646.63;10348265;28;20132;-79
2023/07/04 11:43:49;;;;;;;9.27;3.90;;;;;;;-147.65;100.00;57646.63;10358941;28;20371;-78
2023/07/04 11:48:52;;;;;;;11.57;4.60;;;;;;;-147.65;100.00;57646.63;10341927;28;20070;-80
2023/07/04 11:53:59;;;;;;;11.18;3.72;;;;;;;-147.65;100.00;57646.63;10342179;28;20042;-77
2023/07/04 11:59:18;;;;;;;12.65;3.92;;;;;;;-147.65;100.00;57646.63;10361798;28;20042;-77
2023/07/04 12:04:46;;;;;;;8.07;3.50;;;;;;;-147.65;100.00;57646.63;10340109;28;20127;-77
2023/07/04 12:10:12;;;;;;;8.48;4.43;;;;;;;-147.65;100.00;57646.63;10356857;28;20062;-77
2023/07/04 12:15:24;;;;;;;9.80;4.47;;;;;;;-147.65;100.00;57646.63;10334788;28;20053;-77
2023/07/04 12:20:29;;;;;;;10.32;3.92;;;;;;;-147.65;100.00;57646.63;10364150;28;20056;-77
2023/07/04 12:25:34;;;;;;;9.95;5.35;;;;;;;-147.65;100.00;57646.63;10348188;28;20496;-78
2023/07/04 12:30:38;;;;;;;10.25;6.22;;;;;;;-147.65;100.00;57646.63;10361791;28;20057;-75
2023/07/04 12:35:41;;;;;;;11.48;6.18;;;;;;;-147.65;100.00;57646.63;10362031;28;20050;-77
2023/07/04 12:40:43;;;;;;;;;;;;;;;-147.65;100.00;57646.63;10347706;28;20049;-77
2023/07/04 12:45:43;;;;;;;11.20;4.93;;;;;;;-147.65;100.00;57646.63;10363142;28;19948;-76
2023/07/04 12:50:52;;;;;;;15.23;5.40;;;;;;;-147.65;100.00;57646.63;10347891;28;20037;-75
2023/07/04 12:55:53;;;;;;;14.57;5.97;;;;;;;-147.65;100.00;57646.63;10325907;28;20045;-76
2023/07/04 13:01:02;;;;;;;9.57;5.25;;;;;;;-147.65;100.00;57646.63;10322869;28;20043;-77
2023/07/04 13:06:06;;;;;;;9.82;5.32;;;;;;;-147.65;100.00;57646.63;10305174;28;20475;-77
2023/07/04 13:11:07;;;;;;;11.27;5.30;;;;;;;-147.65;100.00;57646.63;10331298;28;20037;-76
2023/07/04 13:16:24;;;;;;;9.67;5.27;;;;;;;-147.65;100.00;57646.63;10362114;28;20518;-76
2023/07/04 13:21:35;;;;;;;12.65;5.70;;;;;;;-147.65;100.00;57646.63;10322487;28;20042;-77
2023/07/04 13:26:37;;;;;;;17.10;5.40;;;;;;;-147.65;100.00;57646.63;10323483;28;20049;-77
2023/07/04 13:31:38;;;;;;;7.15;5.88;;;;;;;-147.65;100.00;57646.63;10322424;28;20046;-79
2023/07/04 13:36:42;;;;;;;15.33;6.43;;;;;;;-147.65;100.00;57646.63;10302299;28;20038;-78
2023/07/04 13:41:44;;;;;;;7.55;5.10;;;;;;;-147.65;100.00;57646.63;10316940;28;20030;-78
2023/07/04 13:46:44;;;;;;;14.88;5.90;;;;;;;-147.65;100.00;57646.63;10305704;28;20058;-82
2023/07/04 13:51:45;;;;;;;11.57;5.97;;;;;;;-147.65;100.00;57646.63;10320314;28;20121;-81
2023/07/04 13:56:46;;;;;;;15.83;6.90;;;;;;;-147.65;100.00;57646.63;10321220;28;20034;-81
2023/07/04 14:01:46;;;;;;;9.93;6.03;;;;;;;-147.65;100.00;57646.63;10321311;28;20058;-82
2023/07/04 14:06:51;;;;;;;11.67;6.23;;;;;;;-147.65;100.00;57646.63;10321114;28;20148;-82
2023/07/04 14:11:58;;;;;;;11.00;5.45;;;;;;;-147.65;100.00;57646.63;10317233;28;20089;-81
2023/07/04 14:16:58;;;;;;;7.45;5.72;;;;;;;-147.65;100.00;57646.63;10320589;28;20100;-80
2023/07/04 14:21:59;;;;;;;9.90;6.13;;;;;;;-147.65;100.00;57646.63;10318830;28;20044;-79
2023/07/04 14:27:00;;;;;;;;;;;;;;;-147.65;100.00;57646.63;10321000;28;20501;-80
2023/07/04 14:32:01;;;;;;;10.67;5.90;;;;;;;-147.65;100.00;57646.63;10318839;28;19921;-80
2023/07/04 14:37:01;;;;;;;7.30;5.90;;;;;;;-147.65;100.00;57646.63;10328207;28;20356;-79
2023/07/04 14:42:02;;;;;;;11.17;5.17;;;;;;;-147.65;100.00;57646.63;10365892;28;20156;-80
2023/07/04 14:47:03;;;;;;;12.53;5.47;;;;;;;-147.65;100.00;57646.63;10360863;28;20460;-79
2023/07/04 14:52:04;;;;;;;8.60;4.83;;;;;;;-147.65;100.00;57646.63;10357049;28;20037;-79
2023/07/04 14:57:05;;;;;;;16.23;7.37;;;;;;;-147.65;100.00;57646.63;10361266;28;20049;-81
2023/07/04 15:02:06;;;;;;;10.57;5.00;;;;;;;-147.65;100.00;57646.63;10358801;28;20280;-80
2023/07/04 15:07:06;;;;;;;12.63;5.80;;;;;;;-147.65;100.00;57646.63;10342406;28;20034;-80
2023/07/04 15:12:07;;;;;;;10.03;4.77;;;;;;;-147.65;100.00;57646.63;10358906;28;20122;-79
2023/07/04 15:17:08;;;;;;;8.40;4.73;;;;;;;-147.65;100.00;57646.63;10357334;28;20125;-78
2023/07/04 15:22:08;;;;;;;10.40;5.07;;;;;;;-147.65;100.00;57646.63;10341055;28;20046;-80
2023/07/04 15:27:09;;;;;;;10.83;5.37;;;;;;;-147.65;100.00;57646.63;10360082;28;20033;-80
2023/07/04 15:32:09;;;;;;;10.83;4.83;;;;;;;-147.65;100.00;57646.63;10359869;28;20037;-80
2023/07/04 15:37:11;;;;;;;14.07;6.17;;;;;;;-147.65;100.00;57646.63;10358528;28;20073;-80
2023/07/04 15:42:12;;;;;;;12.43;6.05;;;;;;;-147.65;100.00;57646.63;10358003;28;20084;-80
2023/07/04 15:47:12;;;;;;;10.13;6.03;;;;;;;-147.65;100.00;57646.63;10364912;28;20111;-79
2023/07/04 15:52:13;;;;;;;12.53;6.20;;;;;;;-147.65;100.00;57646.63;10365109;28;20077;-80
2023/07/04 15:57:14;;;;;;;12.93;5.20;;;;;;;-147.65;100.00;57646.63;10363324;28;20516;-79
2023/07/04 16:02:15;;;;;;;9.70;5.32;;;;;;;-147.65;100.00;57646.63;10363317;28;20145;-79
2023/07/04 16:07:15;;;;;;;8.80;5.80;;;;;;;-147.65;100.00;57646.63;10362152;28;20095;-79
2023/07/04 16:12:16;;;;;;;12.30;6.00;;;;;;;-147.65;100.00;57646.63;10364590;28;20616;-78
2023/07/04 16:17:17;;;;;;;13.57;4.90;;;;;;;-147.65;100.00;57646.63;10347247;28;20049;-79
2023/07/04 16:22:17;;;;;;;23.90;5.45;;;;;;;-147.65;100.00;57646.63;10365730;28;20133;-79
2023/07/04 16:27:18;;;;;;;9.40;5.22;;;;;;;-147.65;100.00;57646.63;10362871;28;20180;-79
2023/07/04 16:32:18;;;;;;;8.10;5.07;;;;;;;-147.65;100.00;57646.63;10362465;28;20445;-79
2023/07/04 16:37:19;;;;;;;9.27;4.30;;;;;;;-147.65;100.00;57646.63;10363964;28;20140;-79
2023/07/04 16:42:19;;;;;;;12.45;6.05;;;;;;;-147.65;100.00;57646.63;10342340;28;20053;-80
2023/07/04 16:47:20;;;;;;;10.27;5.43;;;;;;;-147.65;100.00;57646.63;10364145;28;20450;-80
2023/07/04 16:52:21;;;;;;;9.68;4.45;;;;;;;-147.65;100.00;57646.63;10364934;28;20091;-79
2023/07/04 16:57:21;;;;;;;8.95;4.70;;;;;;;-147.65;100.00;57646.63;10347200;28;20044;-80
2023/07/04 17:02:21;;;;;;;8.60;5.32;;;;;;;-147.65;100.00;57646.63;10363366;28;20042;-80
2023/07/04 17:07:23;;;;;;;16.35;4.93;;;;;;;-147.65;100.00;57646.63;10358704;28;20041;-79
2023/07/04 17:12:24;;;;;;;17.95;5.80;;;;;;;-147.65;100.00;57646.63;10362792;28;20049;-79
2023/07/04 17:17:25;;;;;;;9.48;5.45;;;;;;;-147.65;100.00;57646.63;10365237;28;20045;-80
2023/07/04 17:22:26;;;;;;;10.90;4.72;;;;;;;-147.65;100.00;57646.63;10347651;28;20051;-79
2023/07/04 17:27:26;;;;;;;16.23;5.13;;;;;;;-147.65;100.00;57646.63;10352550;28;20038;-80
2023/07/04 17:32:27;;;;;;;19.13;5.28;;;;;;;-147.65;100.00;57646.63;10361374;28;20034;-80
2023/07/04 17:37:27;;;;;;;15.02;5.07;;;;;;;-147.65;100.00;57646.63;10363096;28;20038;-80
2023/07/04 17:42:28;;;;;;;10.55;5.90;;;;;;;-147.65;100.00;57646.63;10362860;28;20073;-80
2023/07/04 17:47:29;;;;;;;11.03;4.80;;;;;;;-147.65;100.00;57646.63;10362120;28;20525;-80
2023/07/04 17:52:30;;;;;;;9.15;4.95;;;;;;;-147.65;100.00;57646.63;10358634;28;20041;-80
2023/07/04 17:57:30;;;;;;;9.38;5.78;;;;;;;-147.65;100.00;57646.63;10359143;28;20064;-80
2023/07/04 18:02:31;;;;;;;10.35;4.55;;;;;;;-147.65;100.00;57646.63;10361013;28;20038;-80
2023/07/04 18:07:31;;;;;;;11.13;5.75;;;;;;;-147.65;100.00;57646.63;10361972;28;20065;-80
2023/07/04 18:12:32;;;;;;;11.50;5.40;;;;;;;-147.65;100.00;57646.63;10361463;28;20555;-79
2023/07/04 18:17:32;;;;;;;10.35;4.78;;;;;;;-147.65;100.00;57646.63;10359681;28;20065;-79
2023/07/04 18:22:33;;;;;;;11.73;5.45;;;;;;;-147.65;100.00;57646.63;10360616;28;20829;-80
2023/07/04 18:27:33;;;;;;;28.17;7.85;;;;;;;-147.65;100.00;57646.63;10360372;28;20046;-80
2023/07/04 18:32:34;;;;;;;9.75;6.00;;;;;;;-147.65;100.00;57646.63;10355535;28;20062;-80
2023/07/04 18:37:35;;;;;;;12.43;6.22;;;;;;;-147.65;100.00;57646.63;10360187;28;20113;-79
2023/07/04 18:42:35;;;;;;;10.57;6.22;;;;;;;-147.65;100.00;57646.63;10360222;28;20073;-80
2023/07/04 18:47:36;;;;;;;11.30;6.20;;;;;;;-147.65;100.00;57646.63;10357547;28;20042;-80
2023/07/04 18:52:36;;;;;;;7.93;6.53;;;;;;;-147.65;100.00;57646.63;10361109;28;20088;-81
2023/07/04 18:57:37;;;;;;;8.80;5.78;;;;;;;-147.65;100.00;57646.63;10359832;28;20029;-80
2023/07/04 19:02:37;;;;;;;13.82;7.05;;;;;;;-147.65;100.00;57646.63;10360895;28;20042;-80
2023/07/04 19:07:39;;;;;;;16.08;6.57;;;;;;;-147.65;100.00;57646.63;10357889;28;20382;-80
2023/07/04 19:12:40;;;;;;;8.88;4.88;;;;;;;-147.65;100.00;57646.63;10356535;28;20042;-80
2023/07/04 19:17:40;;;;;;;14.45;8.70;;;;;;;-147.65;100.00;57646.63;10361200;28;20458;-80
2023/07/04 19:22:41;;;;;;;10.35;5.43;;;;;;;-147.65;100.00;57646.63;10364931;28;20133;-79
2023/07/04 19:27:41;;;;;;;16.88;7.28;;;;;;;-147.65;100.00;57646.63;10367670;28;20045;-81
2023/07/04 19:32:42;;;;;;;10.00;6.35;;;;;;;-147.65;100.00;57646.63;10368636;28;20030;-81
2023/07/04 19:37:44;;;;;;;14.10;7.05;;;;;;;-147.65;100.00;57646.63;10365065;28;20546;-81
2023/07/04 19:42:44;;;;;;;11.13;5.85;;;;;;;-147.65;100.00;57646.63;10368536;28;20037;-80
2023/07/04 19:47:45;;;;;;;9.93;5.60;;;;;;;-147.65;100.00;57646.63;10365358;28;20069;-81
2023/07/04 19:52:46;;;;;;;15.23;6.53;;;;;;;-147.65;100.00;57646.63;10365346;28;20046;-80
2023/07/04 19:57:46;;;;;;;12.00;6.10;;;;;;;-147.65;100.00;57646.63;10366958;28;20486;-80
2023/07/04 20:02:47;;;;;;;20.90;6.05;;;;;;;-147.65;100.00;57646.63;10365800;28;20492;-80
2023/07/04 20:07:47;;;;;;;10.50;5.47;;;;;;;-147.65;100.00;57646.63;10365869;28;20049;-80
2023/07/04 20:12:48;;;;;;;13.35;5.65;;;;;;;-147.65;100.00;57646.63;10365596;28;20518;-82
2023/07/04 20:17:48;;;;;;;11.90;5.28;;;;;;;-147.65;100.00;57646.63;10362453;28;20041;-79
2023/07/04 20:22:49;;;;;;;11.52;5.47;;;;;;;-147.65;100.00;57646.63;10361578;28;20054;-80
2023/07/04 20:27:49;;;;;;;13.32;6.00;;;;;;;-147.65;100.00;57646.63;10297002;28;20045;-80
2023/07/04 20:32:51;;;;;;;20.92;9.30;;;;;;;-147.65;100.00;57646.63;10354177;28;20045;-79
2023/07/04 20:37:51;;;;;;;7.70;4.95;;;;;;;-147.65;100.00;57646.63;10364335;28;20038;-79
2023/07/04 20:42:52;;;;;;;10.50;5.70;;;;;;;-147.65;100.00;57646.63;10365814;28;20479;-78
2023/07/04 20:47:53;;;;;;;14.00;5.80;;;;;;;-147.65;100.00;57646.63;10320900;28;20038;-79
2023/07/04 20:52:53;;;;;;;11.05;5.70;;;;;;;-147.65;100.00;57646.63;10306669;28;20486;-78
2023/07/04 20:57:54;;;;;;;16.30;7.15;;;;;;;-147.65;100.00;57646.63;10322162;28;20035;-79
2023/07/04 21:02:57;;;;;;;16.10;6.28;;;;;;;-147.65;100.00;57646.63;10322642;28;20073;-79
2023/07/04 21:07:57;;;;;;;8.52;6.10;;;;;;;-147.65;100.00;57646.63;10321955;28;20030;-79
2023/07/04 21:12:58;;;;;;;8.82;5.50;;;;;;;-147.65;100.00;57646.63;10323849;28;20042;-80
2023/07/04 21:17:59;;;;;;;10.75;7.45;;;;;;;-147.65;100.00;57646.63;10320751;28;20057;-79
2023/07/04 21:22:59;;;;;;;10.88;5.88;;;;;;;-147.65;100.00;57646.63;10321010;28;20537;-80
2023/07/04 21:28:00;;;;;;;11.48;6.78;;;;;;;-147.65;100.00;57646.63;10322604;28;20081;-80
2023/07/04 21:33:00;;;;;;;19.48;9.35;;;;;;;-147.65;100.00;57646.63;10319952;28;20409;-79
2023/07/04 21:38:01;;;;;;;12.10;6.78;;;;;;;-147.65;100.00;57646.63;10322983;28;20034;-79
2023/07/04 21:43:01;;;;;;;12.10;5.90;;;;;;;-147.65;100.00;57646.63;10319658;28;20041;-80
2023/07/04 21:48:02;;;;;;;10.85;6.13;;;;;;;-147.65;100.00;57646.63;10322118;28;20500;-79
2023/07/04 21:53:02;;;;;;;13.73;6.72;;;;;;;-147.65;100.00;57646.63;10322742;28;20462;-80
2023/07/04 21:58:03;;;;;;;11.05;5.32;;;;;;;-147.65;100.00;57646.63;10320786;28;20062;-80
2023/07/04 22:03:04;;;;;;;15.00;6.70;;;;;;;-147.65;100.00;57646.63;10300552;28;20121;-78
2023/07/04 22:08:04;;;;;;;18.85;7.55;;;;;;;-147.65;100.00;57646.63;10321444;28;20479;-80
2023/07/04 22:13:05;;;;;;;14.18;6.53;;;;;;;-147.65;100.00;57646.63;10321695;28;20038;-78
2023/07/04 22:18:05;;;;;;;13.52;6.68;;;;;;;-147.65;100.00;57646.63;10320911;28;20042;-79
2023/07/04 22:23:06;;;;;;;11.60;6.50;;;;;;;-147.65;100.00;57646.63;10318813;28;20042;-79
2023/07/04 22:28:07;;;;;;;11.55;4.95;;;;;;;-147.65;100.00;57646.63;10322038;28;20113;-79